Time;durP1;ratioP1;P1;durP2;ratioP2;P2;SDS_P1;SDS_P2;PMS_P1;PMS_P2;Temp;Humidity;BMP_temperature;BMP_pressure;BME280_temperature;BME280_humidity;BME280_pressure;Samples;Min_cycle;Max_cycle;Signal;HPM_P1;HPM_P2
2021/07/31 00:01:43;;;;;;;;;2.00;2.00;;;;;;;;4672539;30;45501;-94
2021/07/31 00:04:08;;;;;;;;;5.00;2.00;;;;;;;;4670890;30;48186;-91
2021/07/31 00:06:34;;;;;;;;;5.75;3.00;;;;;;;;4688424;30;45513;-92
2021/07/31 00:08:59;;;;;;;;;4.25;2.50;;;;;;;;4671298;30;45481;-94
2021/07/31 00:11:25;;;;;;;;;4.00;2.00;;;;;;;;4710971;24;45606;-92
2021/07/31 00:13:50;;;;;;;;;2.50;2.00;;;;;;;;4684386;30;46828;-94
2021/07/31 00:16:16;;;;;;;;;4.00;2.75;;;;;;;;4700790;30;45507;-91
2021/07/31 00:18:41;;;;;;;;;4.00;2.00;;;;;;;;4684103;30;45095;-92
2021/07/31 00:21:08;;;;;;;;;4.25;2.50;;;;;;;;4697999;30;45531;-93
2021/07/31 00:23:33;;;;;;;;;2.00;1.25;;;;;;;;4682217;30;47872;-92
2021/07/31 00:26:01;;;;;;;;;1.50;1.50;;;;;;;;4699050;30;45421;-92
2021/07/31 00:28:26;;;;;;;;;2.00;2.00;;;;;;;;4696020;30;45298;-92
2021/07/31 00:30:51;;;;;;;;;1.00;1.00;;;;;;;;4683246;30;45511;-91
2021/07/31 00:33:17;;;;;;;;;1.00;1.00;;;;;;;;4690749;30;47665;-94
2021/07/31 00:35:45;;;;;;;;;2.25;1.75;;;;;;;;4683025;30;45579;-91
2021/07/31 00:38:11;;;;;;;;;2.00;2.00;;;;;;;;4698818;30;45502;-93
2021/07/31 00:40:36;;;;;;;;;1.25;1.25;;;;;;;;4688268;30;45386;-92
2021/07/31 00:43:05;;;;;;;;;3.25;1.25;;;;;;;;4700840;30;46324;-91
2021/07/31 00:45:31;;;;;;;;;1.00;1.00;;;;;;;;4692602;30;45492;-92
2021/07/31 00:47:56;;;;;;;;;3.75;1.00;;;;;;;;4699953;30;45330;-92
2021/07/31 00:50:22;;;;;;;;;1.00;1.00;;;;;;;;4683029;30;45349;-92
2021/07/31 00:52:47;;;;;;;;;1.00;1.00;;;;;;;;4685156;30;47165;-93
2021/07/31 00:55:13;;;;;;;;;2.75;2.00;;;;;;;;4700484;30;45656;-92
2021/07/31 00:57:39;;;;;;;;;3.00;1.00;;;;;;;;4700004;30;45510;-92
2021/07/31 01:00:04;;;;;;;;;0.75;0.75;;;;;;;;4685451;30;45606;-93
2021/07/31 01:02:30;;;;;;;;;3.25;2.00;;;;;;;;4698689;30;45629;-92
2021/07/31 01:04:55;;;;;;;;;2.00;2.00;;;;;;;;4682118;30;45571;-93
2021/07/31 01:07:20;;;;;;;;;2.00;2.00;;;;;;;;4686217;30;45487;-92
2021/07/31 01:09:46;;;;;;;;;2.50;1.75;;;;;;;;4686685;30;45590;-92
2021/07/31 01:12:11;;;;;;;;;2.00;2.00;;;;;;;;4690291;30;47060;-92
2021/07/31 01:14:36;;;;;;;;;2.25;2.00;;;;;;;;4685526;30;45625;-92
2021/07/31 01:17:01;;;;;;;;;3.25;2.50;;;;;;;;4698278;30;45292;-92
2021/07/31 01:19:27;;;;;;;;;2.00;2.00;;;;;;;;4699787;30;45419;-92
2021/07/31 01:21:52;;;;;;;;;2.50;2.00;;;;;;;;4681498;30;47409;-93
2021/07/31 01:24:17;;;;;;;;;2.00;2.00;;;;;;;;4684903;30;45339;-92
2021/07/31 01:26:44;;;;;;;;;3.00;2.00;;;;;;;;4678960;30;45718;-92
2021/07/31 01:29:10;;;;;;;;;3.25;2.00;;;;;;;;4700842;30;45368;-91
2021/07/31 01:31:36;;;;;;;;;3.00;2.00;;;;;;;;4684760;30;47852;-93
2021/07/31 01:34:02;;;;;;;;;2.00;2.00;;;;;;;;4682932;30;45432;-92
2021/07/31 01:36:27;;;;;;;;;2.25;2.00;;;;;;;;4698875;30;45710;-93
2021/07/31 01:38:53;;;;;;;;;5.50;1.50;;;;;;;;4699488;30;45578;-92
2021/07/31 01:41:18;;;;;;;;;4.25;2.00;;;;;;;;4685027;30;47022;-94
2021/07/31 01:43:44;;;;;;;;;2.00;2.00;;;;;;;;4683184;30;45667;-92
2021/07/31 01:46:09;;;;;;;;;2.00;1.75;;;;;;;;4681251;30;44918;-95
2021/07/31 01:48:34;;;;;;;;;4.50;2.25;;;;;;;;4685993;30;45600;-93
2021/07/31 01:51:02;;;;;;;;;3.75;2.00;;;;;;;;4688626;30;46605;-93
2021/07/31 01:53:27;;;;;;;;;0.00;0.00;;;;;;;;4683287;30;45531;-93
2021/07/31 01:55:52;;;;;;;;;1.75;1.75;;;;;;;;4683334;30;45296;-93
2021/07/31 01:58:18;;;;;;;;;4.00;2.00;;;;;;;;4700113;30;45609;-94
2021/07/31 02:00:43;;;;;;;;;2.33;2.00;;;;;;;;4698861;30;45663;-92
2021/07/31 02:03:09;;;;;;;;;4.00;2.00;;;;;;;;4699565;30;45539;-92
2021/07/31 02:05:34;;;;;;;;;3.00;2.00;;;;;;;;4682284;30;45544;-92
2021/07/31 02:07:59;;;;;;;;;2.00;2.00;;;;;;;;4700153;30;45354;-92
2021/07/31 02:10:25;;;;;;;;;4.25;2.00;;;;;;;;4698675;30;45516;-92
2021/07/31 02:12:53;;;;;;;;;4.00;2.50;;;;;;;;4696230;30;45028;-94
2021/07/31 02:15:19;;;;;;;;;3.00;2.00;;;;;;;;4684461;30;44888;-94
2021/07/31 02:17:44;;;;;;;;;2.25;1.50;;;;;;;;4699347;30;45584;-90
2021/07/31 02:20:10;;;;;;;;;3.50;2.00;;;;;;;;4686275;30;46951;-92
2021/07/31 02:22:35;;;;;;;;;4.50;1.75;;;;;;;;4699236;30;45601;-94
2021/07/31 02:25:00;;;;;;;;;1.67;1.67;;;;;;;;4684276;30;45481;-92
2021/07/31 02:27:25;;;;;;;;;2.00;2.00;;;;;;;;4697108;30;45488;-92
2021/07/31 02:29:51;;;;;;;;;3.00;2.00;;;;;;;;4684608;30;47162;-93
2021/07/31 02:32:16;;;;;;;;;2.50;2.50;;;;;;;;4698752;30;45773;-93
2021/07/31 02:34:41;;;;;;;;;2.00;2.00;;;;;;;;4698089;30;45398;-92
2021/07/31 02:37:07;;;;;;;;;2.25;2.25;;;;;;;;4687163;30;45454;-91
2021/07/31 02:39:32;;;;;;;;;2.00;2.00;;;;;;;;4690186;30;47435;-92
2021/07/31 02:41:57;;;;;;;;;3.25;3.25;;;;;;;;4686893;30;45321;-92
2021/07/31 02:44:23;;;;;;;;;2.50;2.00;;;;;;;;4689814;30;45513;-93
2021/07/31 02:46:48;;;;;;;;;2.00;2.00;;;;;;;;4681831;30;45464;-93
2021/07/31 02:49:13;;;;;;;;;2.50;2.00;;;;;;;;4683463;30;47176;-93
2021/07/31 02:51:38;;;;;;;;;3.00;1.25;;;;;;;;4701988;30;45403;-93
2021/07/31 02:54:04;;;;;;;;;6.00;3.00;;;;;;;;4691327;30;45222;-93
2021/07/31 02:56:29;;;;;;;;;3.00;3.00;;;;;;;;4685989;30;45614;-93
2021/07/31 02:58:54;;;;;;;;;3.00;2.00;;;;;;;;4682160;30;47243;-93
2021/07/31 03:01:19;;;;;;;;;2.00;2.00;;;;;;;;4701309;30;45455;-92
2021/07/31 03:03:45;;;;;;;;;3.75;2.00;;;;;;;;4686229;30;45344;-92
2021/07/31 03:06:10;;;;;;;;;3.50;2.25;;;;;;;;4700172;30;45321;-92
2021/07/31 03:08:35;;;;;;;;;2.25;2.25;;;;;;;;4693330;30;47452;-92
2021/07/31 03:11:02;;;;;;;;;3.00;2.00;;;;;;;;4692293;30;45354;-92
2021/07/31 03:13:27;;;;;;;;;3.00;2.00;;;;;;;;4699247;30;45309;-93
2021/07/31 03:15:53;;;;;;;;;2.00;2.00;;;;;;;;4685626;30;45476;-93
2021/07/31 03:18:19;;;;;;;;;3.00;1.00;;;;;;;;4701722;30;46572;-93
2021/07/31 03:20:48;;;;;;;;;1.75;1.75;;;;;;;;4685323;30;45878;-94
2021/07/31 03:23:14;;;;;;;;;3.00;2.00;;;;;;;;4687668;30;45523;-93
2021/07/31 03:25:42;;;;;;;;;2.50;1.00;;;;;;;;4683949;30;45540;-94
2021/07/31 03:28:07;;;;;;;;;1.00;1.00;;;;;;;;4686471;30;47252;-93
2021/07/31 03:30:33;;;;;;;;;5.50;2.00;;;;;;;;4698818;30;45929;-94
2021/07/31 03:32:58;;;;;;;;;2.25;2.25;;;;;;;;4682091;30;45493;-93
2021/07/31 03:35:23;;;;;;;;;3.00;3.00;;;;;;;;4685165;30;45591;-94
2021/07/31 03:37:48;;;;;;;;;2.50;2.00;;;;;;;;4701764;30;45640;-93
2021/07/31 03:40:14;;;;;;;;;2.75;2.75;;;;;;;;4697702;30;45822;-94
2021/07/31 03:42:39;;;;;;;;;2.00;2.00;;;;;;;;4699519;30;45586;-94
2021/07/31 03:45:04;;;;;;;;;3.00;2.00;;;;;;;;4683229;30;45520;-93
2021/07/31 03:47:30;;;;;;;;;2.00;2.00;;;;;;;;4682392;30;48196;-93
2021/07/31 03:49:55;;;;;;;;;4.25;2.00;;;;;;;;4682129;30;45475;-93
2021/07/31 03:52:20;;;;;;;;;2.67;2.00;;;;;;;;4698605;30;45447;-92
2021/07/31 03:54:45;;;;;;;;;4.50;1.00;;;;;;;;4689451;30;45617;-92
2021/07/31 03:57:13;;;;;;;;;3.00;3.00;;;;;;;;4697463;30;45572;-93
2021/07/31 03:59:40;;;;;;;;;2.50;2.50;;;;;;;;4680068;30;45440;-93
2021/07/31 04:02:05;;;;;;;;;3.25;3.00;;;;;;;;4699171;30;45289;-92
2021/07/31 04:04:31;;;;;;;;;4.75;3.00;;;;;;;;4684353;30;45583;-93
2021/07/31 04:06:56;;;;;;;;;2.00;2.00;;;;;;;;4689218;30;48198;-91
2021/07/31 04:09:22;;;;;;;;;2.00;2.00;;;;;;;;4682709;30;46100;-93
2021/07/31 04:11:47;;;;;;;;;4.00;2.00;;;;;;;;4698087;30;45378;-94
2021/07/31 04:14:12;;;;;;;;;2.00;2.00;;;;;;;;4679875;30;45598;-91
2021/07/31 04:16:38;;;;;;;;;2.00;2.00;;;;;;;;4699077;30;46174;-92
2021/07/31 04:19:06;;;;;;;;;1.00;0.00;;;;;;;;4682216;30;45489;-92
2021/07/31 04:21:31;;;;;;;;;3.00;3.00;;;;;;;;4683446;30;45632;-94
2021/07/31 04:23:59;;;;;;;;;2.50;2.00;;;;;;;;4684821;30;45863;-93
2021/07/31 04:26:25;;;;;;;;;2.25;2.25;;;;;;;;4683013;30;48161;-93
2021/07/31 04:28:50;;;;;;;;;3.00;3.00;;;;;;;;4694257;30;45443;-95
2021/07/31 04:31:18;;;;;;;;;3.00;2.00;;;;;;;;4682372;30;45535;-92
2021/07/31 04:33:44;;;;;;;;;3.00;1.25;;;;;;;;4747136;24;45059;-90
2021/07/31 05:02:13;;;;;;;;;3.75;2.25;;;;;;;;5521890;24;46290;-92
2021/07/31 05:14:57;;;;;;;;;1.75;1.75;;;;;;;;4663069;30;46651;-93
2021/07/31 05:17:22;;;;;;;;;3.00;2.75;;;;;;;;4658949;30;47659;-90
2021/07/31 05:19:59;;;;;;;;;5.25;3.00;;;;;;;;4652309;30;45338;-92
2021/07/31 05:22:29;;;;;;;;;4.75;3.00;;;;;;;;4664755;30;45264;-93
2021/07/31 05:25:08;;;;;;;;;4.00;2.25;;;;;;;;4652349;30;45525;-96
2021/07/31 05:27:34;;;;;;;;;3.00;3.00;;;;;;;;4652207;30;47053;-94
2021/07/31 05:30:07;;;;;;;;;3.75;3.00;;;;;;;;4667992;30;45409;-95
2021/07/31 05:32:49;;;;;;;;;2.00;2.00;;;;;;;;4665420;30;45524;-93
2021/07/31 05:35:14;;;;;;;;;4.00;2.00;;;;;;;;4651561;30;45562;-94
2021/07/31 05:37:42;;;;;;;;;5.00;2.00;;;;;;;;4645507;30;46677;-94
2021/07/31 05:40:11;;;;;;;;;5.00;1.75;;;;;;;;4656882;30;45435;-95
2021/07/31 05:42:36;;;;;;;;;2.00;2.00;;;;;;;;4653246;30;45541;-94
2021/07/31 05:45:19;;;;;;;;;;;;;;;;;;;;;
2021/07/31 05:47:44;;;;;;;;;5.50;2.75;;;;;;;;4655593;30;75669;-94
2021/07/31 05:50:18;;;;;;;;;4.75;2.00;;;;;;;;4652237;30;45738;-95
2021/07/31 05:52:55;;;;;;;;;5.00;3.50;;;;;;;;4652289;30;45351;-93
2021/07/31 05:55:21;;;;;;;;;4.50;3.00;;;;;;;;4660337;30;45600;-95
2021/07/31 05:58:13;;;;;;;;;5.00;2.00;;;;;;;;4651479;30;47351;-93
2021/07/31 06:00:46;;;;;;;;;3.00;2.00;;;;;;;;4661908;30;44908;-94
2021/07/31 06:03:14;;;;;;;;;4.00;4.00;;;;;;;;4634858;30;45485;-95
2021/07/31 06:06:09;;;;;;;;;2.50;2.50;;;;;;;;4656713;30;45392;-95
2021/07/31 06:08:49;;;;;;;;;3.00;2.50;;;;;;;;4671190;30;46704;-93
2021/07/31 06:11:19;;;;;;;;;2.25;2.00;;;;;;;;4661721;30;45826;-92
2021/07/31 06:14:08;;;;;;;;;5.50;2.50;;;;;;;;4660283;30;45238;-94
2021/07/31 06:16:42;;;;;;;;;3.00;3.00;;;;;;;;4661093;30;45540;-91
2021/07/31 06:19:34;;;;;;;;;6.00;3.00;;;;;;;;4645991;30;47243;-92
2021/07/31 06:22:01;;;;;;;;;6.00;3.00;;;;;;;;4664599;30;44980;-94
2021/07/31 06:45:53;;;;;;;;;4.25;2.25;;;;;;;;4535066;31;45439;-82
2021/07/31 07:05:15;;;;;;;;;3.50;3.25;;;;;;;;4523671;31;46530;-80
2021/07/31 07:07:40;;;;;;;;;6.00;6.00;;;;;;;;4523207;31;45631;-82
2021/07/31 07:15:15;;;;;;;;;4.00;4.00;;;;;;;;5230946;24;45864;-81
2021/07/31 07:17:41;;;;;;;;;4.75;3.50;;;;;;;;4685535;30;45520;-81
2021/07/31 07:56:09;;;;;;;;;5.25;3.00;;;;;;;;3603076;24;46107;-79
2021/07/31 07:58:34;;;;;;;;;5.00;5.00;;;;;;;;4772640;24;45834;-80
2021/07/31 08:13:18;;;;;;;;;8.25;6.75;;;;;;;;4678093;30;45642;-81
2021/07/31 08:24:25;;;;;;;;;6.50;3.50;;;;;;;;5287438;24;45985;-79
2021/07/31 08:39:21;;;;;;;;;3.00;3.00;;;;;;;;4690782;24;45280;-92
2021/07/31 08:41:52;;;;;;;;;3.00;3.00;;;;;;;;4699657;30;45387;-92
2021/07/31 08:44:48;;;;;;;;;5.00;3.75;;;;;;;;4686762;30;45575;-91
2021/07/31 08:50:37;;;;;;;;;3.75;3.75;;;;;;;;4698744;30;45661;-92
2021/07/31 08:53:05;;;;;;;;;3.75;3.00;;;;;;;;4674376;30;45569;-90
2021/07/31 08:55:30;;;;;;;;;6.25;3.75;;;;;;;;4694986;30;45544;-90
2021/07/31 08:57:56;;;;;;;;;3.25;3.25;;;;;;;;4684591;30;47573;-92
2021/07/31 09:00:21;;;;;;;;;5.00;3.75;;;;;;;;4689689;30;45520;-92
2021/07/31 09:02:47;;;;;;;;;4.00;3.00;;;;;;;;4687927;30;45309;-91
2021/07/31 09:05:27;;;;;;;;;2.00;2.00;;;;;;;;4688591;30;44872;-92
2021/07/31 09:07:57;;;;;;;;;4.00;3.00;;;;;;;;4691808;30;45735;-90
2021/07/31 09:10:25;;;;;;;;;6.75;4.25;;;;;;;;4686036;30;46052;-93
2021/07/31 09:12:54;;;;;;;;;4.25;4.00;;;;;;;;4697345;30;46049;-93
2021/07/31 09:15:32;;;;;;;;;4.75;4.00;;;;;;;;4693307;30;45560;-91
2021/07/31 09:18:16;;;;;;;;;3.00;2.00;;;;;;;;4684183;30;47321;-92
2021/07/31 09:20:52;;;;;;;;;3.75;3.00;;;;;;;;4682033;30;45460;-92
2021/07/31 09:44:12;;;;;;;;;3.00;3.00;;;;;;;;5241760;24;45479;-90
2021/07/31 09:46:45;;;;;;;;;5.00;2.75;;;;;;;;4693585;30;45475;-90
2021/07/31 09:49:13;;;;;;;;;4.25;4.25;;;;;;;;4697639;30;45631;-90
2021/07/31 10:30:29;;;;;;;;;8.00;8.00;;;;;;;;5110824;24;45617;-80
2021/07/31 11:28:24;;;;;;;;;6.00;6.00;;;;;;;;4776122;24;45523;-91
2021/07/31 11:30:49;;;;;;;;;27.00;24.75;;;;;;;;4689979;30;48286;-92
2021/07/31 11:33:57;;;;;;;;;;;;;;;;;;;;;
2021/07/31 11:54:22;;;;;;;;;16.25;16.00;;;;;;;;4681342;30;45598;-81
2021/07/31 12:10:55;;;;;;;;;14.00;13.75;;;;;;;;5193756;24;45415;-81
2021/07/31 12:13:51;;;;;;;;;15.25;13.50;;;;;;;;4671275;30;47358;-81
2021/07/31 12:16:41;;;;;;;;;14.75;11.00;;;;;;;;4691336;30;45509;-81
2021/07/31 12:19:18;;;;;;;;;0.75;0.75;;;;;;;;4617970;30;45751;-82
2021/07/31 12:21:43;;;;;;;;;4.75;3.00;;;;;;;;4619173;30;46087;-79
2021/07/31 12:24:57;;;;;;;;;;;;;;;;;;;;;
2021/07/31 12:30:39;;;;;;;;;18.75;17.50;;;;;;;;4611801;30;46545;-79
2021/07/31 12:33:14;;;;;;;;;17.00;15.75;;;;;;;;4615282;30;46186;-80
2021/07/31 12:41:57;;;;;;;;;3.25;2.00;;;;;;;;4578584;30;45475;-83
2021/07/31 12:44:44;;;;;;;;;5.75;5.75;;;;;;;;4570632;30;45457;-84
2021/07/31 12:47:11;;;;;;;;;3.25;3.25;;;;;;;;4562558;30;46741;-83
2021/07/31 12:58:38;;;;;;;;;;;;;;;;;;;;;
2021/07/31 13:01:55;;;;;;;;;;;;;;;;;;;;;
2021/07/31 13:29:24;;;;;;;;;4.00;4.00;;;;;;;;5073034;24;45565;-81
2021/07/31 13:32:31;;;;;;;;;3.25;3.00;;;;;;;;4666721;30;47227;-82
2021/07/31 13:47:56;;;;;;;;;4.00;3.00;;;;;;;;3916074;28;45848;-83
2021/07/31 13:56:21;;;;;;;;;2.00;2.00;;;;;;;;5291070;24;46862;-91
2021/07/31 13:58:46;;;;;;;;;3.00;3.00;;;;;;;;4779089;24;45434;-91
2021/07/31 14:01:12;;;;;;;;;2.00;2.00;;;;;;;;5159372;24;44932;-91
2021/07/31 14:06:12;;;;;;;;;5.00;3.25;;;;;;;;5375691;24;46491;-91
2021/07/31 14:11:14;;;;;;;;;2.00;2.00;;;;;;;;5372940;24;45752;-92
2021/07/31 14:16:50;;;;;;;;;;;;;;;;;;;;;
2021/07/31 14:19:54;;;;;;;;;2.50;2.50;;;;;;;;4695729;30;45474;-91
2021/07/31 14:22:45;;;;;;;;;2.00;2.00;;;;;;;;4683252;30;45526;-92
2021/07/31 14:25:33;;;;;;;;;1.50;1.50;;;;;;;;4625611;30;47182;-91
2021/07/31 14:28:04;;;;;;;;;2.00;2.00;;;;;;;;4624015;30;45695;-92
2021/07/31 14:30:52;;;;;;;;;2.00;2.00;;;;;;;;4639305;30;45581;-91
2021/07/31 14:33:26;;;;;;;;;2.25;2.25;;;;;;;;4634953;30;45440;-91
2021/07/31 14:36:04;;;;;;;;;3.00;1.50;;;;;;;;4631319;30;47249;-92
2021/07/31 14:38:38;;;;;;;;;5.25;3.00;;;;;;;;4641244;30;45524;-90
2021/07/31 14:44:15;;;;;;;;;2.75;2.75;;;;;;;;4632954;30;45744;-92
2021/07/31 14:46:44;;;;;;;;;2.50;2.50;;;;;;;;4628672;30;45894;-90
2021/07/31 15:17:27;;;;;;;;;2.00;2.00;;;;;;;;4294134;24;45956;-90
2021/07/31 15:28:16;;;;;;;;;3.00;3.00;;;;;;;;4972584;24;46237;-90
2021/07/31 15:37:05;;;;;;;;;3.00;2.00;;;;;;;;4661336;30;45520;-92
2021/07/31 15:39:45;;;;;;;;;2.00;2.00;;;;;;;;4647589;30;48253;-92
2021/07/31 15:42:14;;;;;;;;;3.00;1.25;;;;;;;;4686756;30;45562;-91
2021/07/31 15:48:49;;;;;;;;;;;;;;;;;;;;;
2021/07/31 15:51:26;;;;;;;;;3.00;3.00;;;;;;;;4636689;30;74523;-91
2021/07/31 15:54:29;;;;;;;;;4.00;3.00;;;;;;;;4694033;30;45691;-91
2021/07/31 15:57:27;;;;;;;;;;;;;;;;;;;;;
2021/07/31 16:00:07;;;;;;;;;3.25;3.25;;;;;;;;4580159;30;72381;-91
2021/07/31 16:03:26;;;;;;;;;;;;;;;;;;;;;
2021/07/31 16:07:26;;;;;;;;;2.25;2.25;;;;;;;;4557564;31;73438;-91
2021/07/31 16:13:02;;;;;;;;;;;;;;;;;;;;;
2021/07/31 16:15:56;;;;;;;;;6.00;2.00;;;;;;;;4514254;31;75339;-91
2021/07/31 16:18:58;;;;;;;;;3.25;2.00;;;;;;;;4503424;31;45716;-91
2021/07/31 16:21:43;;;;;;;;;2.25;2.00;;;;;;;;4483516;31;45512;-91
2021/07/31 16:27:38;;;;;;;;;2.00;2.00;;;;;;;;4503539;31;45752;-91
2021/07/31 16:30:41;;;;;;;;;;;;;;;;;;;;;
2021/07/31 16:33:15;;;;;;;;;2.00;2.00;;;;;;;;4501472;31;67076;-91
2021/07/31 16:39:20;;;;;;;;;2.75;2.75;;;;;;;;4580550;31;45991;-92
2021/07/31 16:45:00;;;;;;;;;2.00;2.00;;;;;;;;4565788;31;45521;-92
2021/07/31 16:47:25;;;;;;;;;2.75;2.00;;;;;;;;4561030;31;46458;-92
2021/07/31 16:50:25;;;;;;;;;3.25;2.00;;;;;;;;4581094;30;45930;-93
2021/07/31 16:52:53;;;;;;;;;1.50;1.50;;;;;;;;4544041;31;45677;-92
2021/07/31 16:55:22;;;;;;;;;1.00;1.00;;;;;;;;4590369;30;45815;-91
2021/07/31 16:57:53;;;;;;;;;3.00;1.50;;;;;;;;4612343;30;45541;-91
2021/07/31 17:00:18;;;;;;;;;1.50;1.00;;;;;;;;4596783;30;46697;-93
2021/07/31 17:05:46;;;;;;;;;2.75;2.00;;;;;;;;4616374;30;46251;-92
2021/07/31 17:09:10;;;;;;;;;4.00;2.75;;;;;;;;4599889;30;45465;-91
2021/07/31 17:12:09;;;;;;;;;5.00;3.25;;;;;;;;4579245;31;45819;-93
2021/07/31 17:14:55;;;;;;;;;2.75;2.75;;;;;;;;4567510;31;45399;-91
2021/07/31 17:24:14;;;;;;;;;2.75;2.00;;;;;;;;4512470;31;45629;-93
2021/07/31 17:26:48;;;;;;;;;2.00;2.00;;;;;;;;4502169;31;45550;-91
2021/07/31 17:29:26;;;;;;;;;;;;;;;;;;;;;
2021/07/31 17:32:01;;;;;;;;;3.00;2.00;;;;;;;;4476745;31;71248;-92
2021/07/31 17:38:00;;;;;;;;;2.00;2.00;;;;;;;;4475234;31;45602;-92
2021/07/31 17:43:53;;;;;;;;;3.50;1.50;;;;;;;;4468105;31;45598;-92
2021/07/31 17:46:28;;;;;;;;;2.50;1.50;;;;;;;;4467979;31;46495;-91
2021/07/31 17:48:58;;;;;;;;;2.25;1.75;;;;;;;;4463610;31;45402;-93
2021/07/31 17:51:47;;;;;;;;;6.00;3.00;;;;;;;;4479144;31;45448;-93
2021/07/31 17:54:15;;;;;;;;;5.25;2.75;;;;;;;;4470367;31;45568;-92
2021/07/31 17:56:40;;;;;;;;;4.25;3.00;;;;;;;;4482048;31;45828;-92
2021/07/31 17:59:06;;;;;;;;;5.00;5.00;;;;;;;;4482807;31;45546;-93
2021/07/31 18:01:32;;;;;;;;;3.25;3.25;;;;;;;;4526891;31;45602;-91
2021/07/31 18:04:23;;;;;;;;;5.25;3.75;;;;;;;;4563378;31;45666;-93
2021/07/31 18:07:18;;;;;;;;;;;;;;;;;;;;;
2021/07/31 18:09:37;;;;;;;;;9.00;9.00;;;;;;;;4562154;31;45425;-91
2021/07/31 18:12:13;;;;;;;;;13.50;11.75;;;;;;;;4557873;31;45603;-92
2021/07/31 18:14:52;;;;;;;;;19.50;11.25;;;;;;;;4578899;30;45591;-92
2021/07/31 18:17:23;;;;;;;;;8.75;8.75;;;;;;;;4612123;30;45815;-91
2021/07/31 18:19:58;;;;;;;;;19.75;15.75;;;;;;;;4631745;30;45425;-90
2021/07/31 18:22:23;;;;;;;;;15.25;10.75;;;;;;;;4694721;30;46232;-89
2021/07/31 18:24:57;;;;;;;;;4.50;4.25;;;;;;;;4700405;30;45451;-92
2021/07/31 18:27:22;;;;;;;;;8.25;5.75;;;;;;;;4695836;30;46641;-92
2021/07/31 18:29:47;;;;;;;;;12.00;11.00;;;;;;;;4693854;30;45673;-92
2021/07/31 18:32:13;;;;;;;;;4.00;4.00;;;;;;;;4680860;30;45722;-91
2021/07/31 18:34:43;;;;;;;;;5.00;5.00;;;;;;;;4681653;30;45413;-93
2021/07/31 18:37:08;;;;;;;;;4.25;3.25;;;;;;;;4692589;30;46097;-91
2021/07/31 18:39:50;;;;;;;;;3.75;3.75;;;;;;;;4684035;30;45686;-92
2021/07/31 18:42:15;;;;;;;;;3.25;2.00;;;;;;;;4689954;30;45494;-91
2021/07/31 18:44:40;;;;;;;;;3.00;3.00;;;;;;;;4687973;30;45579;-93
2021/07/31 18:47:14;;;;;;;;;2.00;2.00;;;;;;;;4689822;30;45711;-92
2021/07/31 18:49:42;;;;;;;;;3.25;2.25;;;;;;;;4681545;30;46631;-93
2021/07/31 18:52:08;;;;;;;;;3.25;3.00;;;;;;;;4697036;30;45542;-94
2021/07/31 18:54:40;;;;;;;;;5.25;5.25;;;;;;;;4697035;30;45617;-93
2021/07/31 18:57:06;;;;;;;;;15.25;12.25;;;;;;;;4690809;30;45683;-94
2021/07/31 18:59:35;;;;;;;;;16.25;14.50;;;;;;;;4674868;30;45564;-94
2021/07/31 19:02:00;;;;;;;;;13.50;11.00;;;;;;;;4684364;30;45643;-93
2021/07/31 19:04:25;;;;;;;;;21.00;18.00;;;;;;;;4674628;30;45633;-91
2021/07/31 19:06:51;;;;;;;;;19.00;17.67;;;;;;;;4682782;30;46985;-92
2021/07/31 19:09:16;;;;;;;;;11.75;11.50;;;;;;;;4698683;30;45525;-93
2021/07/31 19:11:41;;;;;;;;;7.50;6.75;;;;;;;;4685718;30;45493;-92
2021/07/31 19:14:07;;;;;;;;;9.00;7.75;;;;;;;;4676869;30;45333;-92
2021/07/31 19:16:33;;;;;;;;;6.75;6.00;;;;;;;;4693145;30;45528;-91
2021/07/31 19:18:58;;;;;;;;;4.75;4.75;;;;;;;;4697494;30;45478;-92
2021/07/31 19:21:25;;;;;;;;;5.00;4.50;;;;;;;;4683680;30;45439;-93
2021/07/31 19:23:50;;;;;;;;;3.75;3.75;;;;;;;;4687216;30;45698;-94
2021/07/31 19:26:16;;;;;;;;;5.00;5.00;;;;;;;;4699776;30;46283;-93
2021/07/31 19:28:41;;;;;;;;;3.25;3.25;;;;;;;;4687054;30;45503;-92
2021/07/31 19:31:06;;;;;;;;;2.75;2.75;;;;;;;;4686634;30;45686;-92
2021/07/31 19:33:32;;;;;;;;;2.00;2.00;;;;;;;;4703653;30;45502;-92
2021/07/31 19:35:58;;;;;;;;;6.00;3.25;;;;;;;;4701969;30;46374;-93
2021/07/31 19:38:23;;;;;;;;;4.50;4.50;;;;;;;;4678916;30;45404;-91
2021/07/31 19:40:49;;;;;;;;;2.00;2.00;;;;;;;;4702861;30;45527;-93
2021/07/31 19:43:14;;;;;;;;;6.25;4.75;;;;;;;;4687366;30;45543;-91
2021/07/31 19:45:39;;;;;;;;;3.00;3.00;;;;;;;;4680035;30;48239;-93
2021/07/31 19:48:05;;;;;;;;;3.75;3.75;;;;;;;;4686416;30;45578;-93
2021/07/31 19:50:30;;;;;;;;;3.00;3.00;;;;;;;;4700181;30;45607;-93
2021/07/31 19:52:58;;;;;;;;;2.25;2.00;;;;;;;;4683454;30;45533;-92
2021/07/31 19:55:23;;;;;;;;;2.50;2.50;;;;;;;;4699346;30;46243;-93
2021/07/31 19:57:48;;;;;;;;;5.00;3.00;;;;;;;;4677710;30;45619;-93
2021/07/31 20:00:14;;;;;;;;;4.75;3.00;;;;;;;;4700303;30;45438;-93
2021/07/31 20:02:40;;;;;;;;;3.00;3.00;;;;;;;;4699605;30;45642;-93
2021/07/31 20:05:06;;;;;;;;;3.50;3.50;;;;;;;;4690815;30;46165;-93
2021/07/31 20:07:31;;;;;;;;;2.25;2.25;;;;;;;;4680613;30;46229;-91
2021/07/31 20:09:59;;;;;;;;;4.75;4.50;;;;;;;;4698331;30;45511;-92
2021/07/31 20:15:47;;;;;;;;;5.75;3.00;;;;;;;;4756774;24;45636;-94
2021/07/31 20:18:18;;;;;;;;;5.25;5.00;;;;;;;;4664969;30;45305;-93
2021/07/31 20:20:43;;;;;;;;;4.00;4.00;;;;;;;;4693046;30;44966;-92
2021/07/31 20:23:10;;;;;;;;;5.00;4.75;;;;;;;;4718665;30;44895;-92
2021/07/31 20:25:36;;;;;;;;;3.00;3.00;;;;;;;;4704404;30;46762;-91
2021/07/31 20:28:24;;;;;;;;;4.75;3.75;;;;;;;;4673704;30;45535;-94
2021/07/31 20:30:51;;;;;;;;;3.00;3.00;;;;;;;;4693578;30;45691;-91
2021/07/31 20:33:20;;;;;;;;;5.50;4.00;;;;;;;;4694863;30;45455;-93
2021/07/31 20:35:47;;;;;;;;;6.50;4.50;;;;;;;;4697453;30;45944;-92
2021/07/31 20:38:24;;;;;;;;;4.00;4.00;;;;;;;;4681714;30;45633;-91
2021/07/31 20:40:50;;;;;;;;;5.75;5.50;;;;;;;;4703059;30;44918;-92
2021/07/31 20:43:24;;;;;;;;;2.75;2.75;;;;;;;;4690662;30;45534;-93
2021/07/31 20:45:52;;;;;;;;;5.00;5.00;;;;;;;;4688039;30;46840;-92
2021/07/31 20:48:17;;;;;;;;;3.00;3.00;;;;;;;;4689289;30;45463;-93
2021/07/31 20:50:57;;;;;;;;;4.50;3.25;;;;;;;;4674515;30;45497;-93
2021/07/31 20:53:22;;;;;;;;;4.00;3.25;;;;;;;;4682823;30;45603;-93
2021/07/31 20:55:54;;;;;;;;;4.75;3.50;;;;;;;;4678414;30;46629;-93
2021/07/31 20:58:51;;;;;;;;;4.00;3.00;;;;;;;;4690030;30;45324;-93
2021/07/31 21:01:16;;;;;;;;;3.25;3.00;;;;;;;;4677562;30;45514;-92
2021/07/31 21:03:53;;;;;;;;;3.00;3.00;;;;;;;;4679376;30;45582;-92
2021/07/31 21:06:18;;;;;;;;;3.25;3.25;;;;;;;;4680895;30;46061;-93
2021/07/31 21:08:44;;;;;;;;;3.00;3.00;;;;;;;;4687436;30;45831;-94
2021/07/31 21:11:33;;;;;;;;;3.25;2.00;;;;;;;;4685710;30;45539;-92
2021/07/31 21:14:01;;;;;;;;;4.75;3.25;;;;;;;;4678227;30;45384;-93
2021/07/31 21:16:41;;;;;;;;;3.75;3.00;;;;;;;;4688571;30;46234;-93
2021/07/31 21:19:08;;;;;;;;;3.50;2.75;;;;;;;;4682775;30;45549;-94
2021/07/31 21:21:34;;;;;;;;;3.75;3.00;;;;;;;;4677054;30;45411;-91
2021/07/31 21:24:02;;;;;;;;;4.75;3.50;;;;;;;;4681171;30;45394;-93
2021/07/31 21:26:30;;;;;;;;;4.00;3.00;;;;;;;;4699959;30;46089;-94
2021/07/31 21:28:55;;;;;;;;;4.00;2.75;;;;;;;;4689948;30;45513;-94
2021/07/31 21:31:20;;;;;;;;;3.25;2.00;;;;;;;;4695632;30;45335;-92
2021/07/31 21:33:46;;;;;;;;;2.75;2.25;;;;;;;;4678593;30;45552;-94
2021/07/31 21:36:11;;;;;;;;;4.50;4.50;;;;;;;;4686005;30;47785;-94
2021/07/31 21:38:44;;;;;;;;;3.50;3.50;;;;;;;;4683363;30;45533;-94
2021/07/31 21:41:09;;;;;;;;;7.00;4.00;;;;;;;;4693993;30;45506;-93
2021/07/31 21:43:35;;;;;;;;;4.00;4.00;;;;;;;;4683663;30;45684;-94
2021/07/31 21:46:23;;;;;;;;;3.50;3.50;;;;;;;;4698148;30;45871;-92
2021/07/31 21:48:49;;;;;;;;;4.25;2.75;;;;;;;;4680274;30;45601;-94
2021/07/31 21:51:14;;;;;;;;;4.75;4.75;;;;;;;;4692850;30;45406;-93
2021/07/31 21:56:23;;;;;;;;;4.00;4.00;;;;;;;;5014156;24;45911;-93
2021/07/31 21:58:51;;;;;;;;;4.00;4.00;;;;;;;;4683324;30;45533;-92
2021/07/31 22:01:21;;;;;;;;;6.00;3.00;;;;;;;;4668891;30;45396;-91
2021/07/31 22:03:46;;;;;;;;;4.75;4.75;;;;;;;;4690409;30;45553;-94
2021/07/31 22:06:12;;;;;;;;;5.25;4.50;;;;;;;;4686495;30;45412;-93
2021/07/31 22:08:38;;;;;;;;;4.00;4.00;;;;;;;;4691160;30;45455;-93
2021/07/31 22:11:03;;;;;;;;;4.00;4.00;;;;;;;;4678014;30;45345;-93
2021/07/31 22:13:29;;;;;;;;;5.00;5.00;;;;;;;;4695991;30;46604;-92
2021/07/31 22:15:54;;;;;;;;;6.25;5.00;;;;;;;;4672105;30;47516;-92
2021/07/31 22:18:19;;;;;;;;;6.00;5.00;;;;;;;;4685059;30;45555;-91
2021/07/31 22:20:45;;;;;;;;;8.25;5.50;;;;;;;;4671405;30;45261;-93
2021/07/31 22:25:45;;;;;;;;;3.50;3.50;;;;;;;;4904564;24;45083;-93
2021/07/31 22:28:10;;;;;;;;;6.75;5.25;;;;;;;;4696758;30;45454;-94
2021/07/31 22:30:38;;;;;;;;;5.00;5.00;;;;;;;;4698292;30;45293;-93
2021/07/31 22:33:03;;;;;;;;;5.25;5.25;;;;;;;;4666039;30;45563;-92
2021/07/31 22:35:29;;;;;;;;;4.00;4.00;;;;;;;;4698442;30;46985;-93
2021/07/31 22:37:55;;;;;;;;;5.50;4.25;;;;;;;;4687972;30;45319;-93
2021/07/31 22:40:23;;;;;;;;;6.00;5.00;;;;;;;;4699133;30;45211;-92
2021/07/31 22:42:59;;;;;;;;;8.00;5.25;;;;;;;;4699863;30;45453;-91
2021/07/31 22:45:27;;;;;;;;;4.50;4.50;;;;;;;;4683997;30;46705;-93
2021/07/31 22:47:54;;;;;;;;;6.50;6.00;;;;;;;;4684807;30;45730;-92
2021/07/31 22:50:20;;;;;;;;;7.50;5.00;;;;;;;;4684428;30;45393;-94
2021/07/31 22:52:45;;;;;;;;;7.75;5.75;;;;;;;;4702779;30;44891;-92